sensor_id;sensor_type;location;lat;lon;timestamp;temperature;humidity
33139;DHT22;19501;50.948;5.316;2023-09-30T00:01:32;12.50;99.90
33139;DHT22;19501;50.948;5.316;2023-09-30T00:03:58;12.50;99.90
33139;DHT22;19501;50.948;5.316;2023-09-30T00:06:25;12.60;99.90
33139;DHT22;19501;50.948;5.316;2023-09-30T00:08:51;12.60;99.90
33139;DHT22;19501;50.948;5.316;2023-09-30T00:11:16;12.60;99.90
33139;DHT22;19501;50.948;5.316;2023-09-30T00:13:45;12.60;99.90
33139;DHT22;19501;50.948;5.316;2023-09-30T00:16:11;12.70;99.90
33139;DHT22;19501;50.948;5.316;2023-09-30T00:18:37;12.70;99.90
33139;DHT22;19501;50.948;5.316;2023-09-30T00:21:02;12.80;99.90
33139;DHT22;19501;50.948;5.316;2023-09-30T00:23:28;12.60;99.90
33139;DHT22;19501;50.948;5.316;2023-09-30T00:25:54;12.50;99.90
33139;DHT22;19501;50.948;5.316;2023-09-30T00:28:20;12.60;99.90
33139;DHT22;19501;50.948;5.316;2023-09-30T00:30:46;12.60;99.90
33139;DHT22;19501;50.948;5.316;2023-09-30T00:33:13;12.60;99.90
33139;DHT22;19501;50.948;5.316;2023-09-30T00:35:39;12.80;99.90
33139;DHT22;19501;50.948;5.316;2023-09-30T00:38:04;12.80;99.90
33139;DHT22;19501;50.948;5.316;2023-09-30T00:40:30;12.80;99.90
33139;DHT22;19501;50.948;5.316;2023-09-30T00:42:56;12.70;99.90
33139;DHT22;19501;50.948;5.316;2023-09-30T00:45:21;12.70;99.90
33139;DHT22;19501;50.948;5.316;2023-09-30T00:47:47;12.50;99.90
33139;DHT22;19501;50.948;5.316;2023-09-30T00:50:13;12.40;99.90
33139;DHT22;19501;50.948;5.316;2023-09-30T00:52:40;12.40;99.90
33139;DHT22;19501;50.948;5.316;2023-09-30T00:55:07;12.50;99.90
33139;DHT22;19501;50.948;5.316;2023-09-30T00:57:34;12.60;99.90
33139;DHT22;19501;50.948;5.316;2023-09-30T01:00:00;12.60;99.90
33139;DHT22;19501;50.948;5.316;2023-09-30T01:02:26;12.30;99.90
33139;DHT22;19501;50.948;5.316;2023-09-30T01:04:52;12.20;99.90
33139;DHT22;19501;50.948;5.316;2023-09-30T01:07:19;12.30;99.90
33139;DHT22;19501;50.948;5.316;2023-09-30T01:09:47;12.40;99.90
33139;DHT22;19501;50.948;5.316;2023-09-30T01:12:13;12.50;99.90
33139;DHT22;19501;50.948;5.316;2023-09-30T01:14:39;12.50;99.90
33139;DHT22;19501;50.948;5.316;2023-09-30T01:17:06;12.50;99.90
33139;DHT22;19501;50.948;5.316;2023-09-30T01:19:36;12.60;99.90
33139;DHT22;19501;50.948;5.316;2023-09-30T01:22:02;12.60;99.90
33139;DHT22;19501;50.948;5.316;2023-09-30T01:24:41;12.40;99.90
33139;DHT22;19501;50.948;5.316;2023-09-30T01:27:08;12.20;99.90
33139;DHT22;19501;50.948;5.316;2023-09-30T01:29:36;12.20;99.90
33139;DHT22;19501;50.948;5.316;2023-09-30T01:32:06;12.30;99.90
33139;DHT22;19501;50.948;5.316;2023-09-30T01:34:37;12.30;99.90
33139;DHT22;19501;50.948;5.316;2023-09-30T01:37:08;12.30;99.90
33139;DHT22;19501;50.948;5.316;2023-09-30T01:39:33;12.00;99.90
33139;DHT22;19501;50.948;5.316;2023-09-30T01:41:59;11.80;99.90
33139;DHT22;19501;50.948;5.316;2023-09-30T01:44:25;11.90;99.90
33139;DHT22;19501;50.948;5.316;2023-09-30T01:46:51;12.20;99.90
33139;DHT22;19501;50.948;5.316;2023-09-30T01:49:17;12.20;99.90
33139;DHT22;19501;50.948;5.316;2023-09-30T01:51:49;12.20;99.90
33139;DHT22;19501;50.948;5.316;2023-09-30T01:54:15;12.20;99.90
33139;DHT22;19501;50.948;5.316;2023-09-30T01:56:40;12.20;99.90
33139;DHT22;19501;50.948;5.316;2023-09-30T01:59:06;12.10;99.90
33139;DHT22;19501;50.948;5.316;2023-09-30T02:01:31;12.10;99.90
33139;DHT22;19501;50.948;5.316;2023-09-30T02:03:57;12.10;99.90
33139;DHT22;19501;50.948;5.316;2023-09-30T02:06:23;12.10;99.90
33139;DHT22;19501;50.948;5.316;2023-09-30T02:08:48;12.10;99.90
33139;DHT22;19501;50.948;5.316;2023-09-30T02:11:14;12.10;99.90
33139;DHT22;19501;50.948;5.316;2023-09-30T02:13:41;12.10;99.90
33139;DHT22;19501;50.948;5.316;2023-09-30T02:16:12;12.00;99.90
33139;DHT22;19501;50.948;5.316;2023-09-30T02:18:39;12.10;99.90
33139;DHT22;19501;50.948;5.316;2023-09-30T02:21:06;12.10;99.90
33139;DHT22;19501;50.948;5.316;2023-09-30T02:23:34;12.00;99.90
33139;DHT22;19501;50.948;5.316;2023-09-30T02:26:00;12.00;99.90
33139;DHT22;19501;50.948;5.316;2023-09-30T02:28:25;12.00;99.90
33139;DHT22;19501;50.948;5.316;2023-09-30T02:30:51;11.90;99.90
33139;DHT22;19501;50.948;5.316;2023-09-30T02:33:17;11.90;99.90
33139;DHT22;19501;50.948;5.316;2023-09-30T02:35:44;11.90;99.90
33139;DHT22;19501;50.948;5.316;2023-09-30T02:38:11;11.70;99.90
33139;DHT22;19501;50.948;5.316;2023-09-30T02:40:37;11.50;99.90
33139;DHT22;19501;50.948;5.316;2023-09-30T02:43:03;11.40;99.90
33139;DHT22;19501;50.948;5.316;2023-09-30T02:45:31;11.40;99.90
33139;DHT22;19501;50.948;5.316;2023-09-30T02:47:57;11.40;99.90
33139;DHT22;19501;50.948;5.316;2023-09-30T02:50:22;11.60;99.90
33139;DHT22;19501;50.948;5.316;2023-09-30T02:52:48;11.60;99.90
33139;DHT22;19501;50.948;5.316;2023-09-30T02:55:15;11.60;99.90
33139;DHT22;19501;50.948;5.316;2023-09-30T02:57:40;11.60;99.90
33139;DHT22;19501;50.948;5.316;2023-09-30T03:00:08;11.60;99.90
33139;DHT22;19501;50.948;5.316;2023-09-30T03:02:55;11.60;99.90
33139;DHT22;19501;50.948;5.316;2023-09-30T03:05:22;11.60;99.90
33139;DHT22;19501;50.948;5.316;2023-09-30T03:07:49;11.70;99.90
33139;DHT22;19501;50.948;5.316;2023-09-30T03:10:18;11.80;99.90
33139;DHT22;19501;50.948;5.316;2023-09-30T03:12:58;11.80;99.90
33139;DHT22;19501;50.948;5.316;2023-09-30T03:15:28;11.70;99.90
33139;DHT22;19501;50.948;5.316;2023-09-30T03:17:57;11.60;99.90
33139;DHT22;19501;50.948;5.316;2023-09-30T03:20:27;11.50;99.90
33139;DHT22;19501;50.948;5.316;2023-09-30T03:22:56;11.60;99.90
33139;DHT22;19501;50.948;5.316;2023-09-30T03:25:23;11.70;99.90
33139;DHT22;19501;50.948;5.316;2023-09-30T03:27:48;11.70;99.90
33139;DHT22;19501;50.948;5.316;2023-09-30T03:30:15;11.80;99.90
33139;DHT22;19501;50.948;5.316;2023-09-30T03:32:44;11.80;99.90
33139;DHT22;19501;50.948;5.316;2023-09-30T03:35:11;11.80;99.90
33139;DHT22;19501;50.948;5.316;2023-09-30T03:37:40;11.80;99.90
33139;DHT22;19501;50.948;5.316;2023-09-30T03:40:07;11.80;99.90
33139;DHT22;19501;50.948;5.316;2023-09-30T03:42:43;11.70;99.90
33139;DHT22;19501;50.948;5.316;2023-09-30T03:45:09;11.70;99.90
33139;DHT22;19501;50.948;5.316;2023-09-30T03:47:37;11.70;99.90
33139;DHT22;19501;50.948;5.316;2023-09-30T03:50:03;11.70;99.90
33139;DHT22;19501;50.948;5.316;2023-09-30T03:52:30;11.70;99.90
33139;DHT22;19501;50.948;5.316;2023-09-30T03:55:02;11.60;99.90
33139;DHT22;19501;50.948;5.316;2023-09-30T03:57:32;11.50;99.90
33139;DHT22;19501;50.948;5.316;2023-09-30T04:00:00;11.30;99.90
33139;DHT22;19501;50.948;5.316;2023-09-30T04:02:28;11.20;99.90
33139;DHT22;19501;50.948;5.316;2023-09-30T04:04:54;11.10;99.90
33139;DHT22;19501;50.948;5.316;2023-09-30T04:07:21;11.20;99.90
33139;DHT22;19501;50.948;5.316;2023-09-30T04:09:48;11.30;99.90
33139;DHT22;19501;50.948;5.316;2023-09-30T04:12:14;11.30;99.90
33139;DHT22;19501;50.948;5.316;2023-09-30T04:14:39;11.40;99.90
33139;DHT22;19501;50.948;5.316;2023-09-30T04:17:05;11.40;99.90
33139;DHT22;19501;50.948;5.316;2023-09-30T04:19:30;11.50;99.90
33139;DHT22;19501;50.948;5.316;2023-09-30T04:21:56;11.40;99.90
33139;DHT22;19501;50.948;5.316;2023-09-30T04:24:24;11.50;99.90
33139;DHT22;19501;50.948;5.316;2023-09-30T04:26:50;11.50;99.90
33139;DHT22;19501;50.948;5.316;2023-09-30T04:29:18;11.50;99.90
33139;DHT22;19501;50.948;5.316;2023-09-30T04:31:43;11.40;99.90
33139;DHT22;19501;50.948;5.316;2023-09-30T04:34:12;11.50;99.90
33139;DHT22;19501;50.948;5.316;2023-09-30T04:36:38;11.50;99.90
33139;DHT22;19501;50.948;5.316;2023-09-30T04:39:04;11.50;99.90
33139;DHT22;19501;50.948;5.316;2023-09-30T04:41:30;11.50;99.90
33139;DHT22;19501;50.948;5.316;2023-09-30T04:43:56;11.50;99.90
33139;DHT22;19501;50.948;5.316;2023-09-30T04:46:22;11.50;99.90
33139;DHT22;19501;50.948;5.316;2023-09-30T04:48:49;11.50;99.90
33139;DHT22;19501;50.948;5.316;2023-09-30T04:51:18;11.50;99.90
33139;DHT22;19501;50.948;5.316;2023-09-30T04:53:44;11.50;99.90
33139;DHT22;19501;50.948;5.316;2023-09-30T04:56:13;11.50;99.90
33139;DHT22;19501;50.948;5.316;2023-09-30T04:58:39;11.60;99.90
33139;DHT22;19501;50.948;5.316;2023-09-30T05:01:05;11.60;99.90
33139;DHT22;19501;50.948;5.316;2023-09-30T05:03:34;11.50;99.90
33139;DHT22;19501;50.948;5.316;2023-09-30T05:06:00;11.50;99.90
33139;DHT22;19501;50.948;5.316;2023-09-30T05:08:26;11.40;99.90
33139;DHT22;19501;50.948;5.316;2023-09-30T05:10:54;11.40;99.90
33139;DHT22;19501;50.948;5.316;2023-09-30T05:13:22;11.30;99.90
33139;DHT22;19501;50.948;5.316;2023-09-30T05:15:51;11.20;99.90
33139;DHT22;19501;50.948;5.316;2023-09-30T05:18:17;11.10;99.90
33139;DHT22;19501;50.948;5.316;2023-09-30T05:20:45;11.10;99.90
33139;DHT22;19501;50.948;5.316;2023-09-30T05:23:14;11.10;99.90
33139;DHT22;19501;50.948;5.316;2023-09-30T05:25:40;11.20;99.90
33139;DHT22;19501;50.948;5.316;2023-09-30T05:28:07;11.00;99.90
33139;DHT22;19501;50.948;5.316;2023-09-30T05:30:35;10.90;99.90
33139;DHT22;19501;50.948;5.316;2023-09-30T05:33:01;11.00;99.90
33139;DHT22;19501;50.948;5.316;2023-09-30T05:35:27;11.00;99.90
33139;DHT22;19501;50.948;5.316;2023-09-30T05:37:56;10.90;99.90
33139;DHT22;19501;50.948;5.316;2023-09-30T05:40:21;10.90;99.90
33139;DHT22;19501;50.948;5.316;2023-09-30T05:42:48;11.00;99.90
33139;DHT22;19501;50.948;5.316;2023-09-30T05:45:16;10.90;99.90
33139;DHT22;19501;50.948;5.316;2023-09-30T05:47:43;10.90;99.90
33139;DHT22;19501;50.948;5.316;2023-09-30T05:50:11;10.90;99.90
33139;DHT22;19501;50.948;5.316;2023-09-30T05:52:41;10.90;99.90
33139;DHT22;19501;50.948;5.316;2023-09-30T05:55:07;10.80;99.90
33139;DHT22;19501;50.948;5.316;2023-09-30T05:57:33;10.80;99.90
33139;DHT22;19501;50.948;5.316;2023-09-30T05:59:59;10.80;99.90
33139;DHT22;19501;50.948;5.316;2023-09-30T06:02:24;10.80;99.90
33139;DHT22;19501;50.948;5.316;2023-09-30T06:04:50;10.80;99.90
33139;DHT22;19501;50.948;5.316;2023-09-30T06:07:18;10.80;99.90
33139;DHT22;19501;50.948;5.316;2023-09-30T06:09:45;10.80;99.90
33139;DHT22;19501;50.948;5.316;2023-09-30T06:12:13;10.80;99.90
33139;DHT22;19501;50.948;5.316;2023-09-30T06:14:39;10.80;99.90
33139;DHT22;19501;50.948;5.316;2023-09-30T06:17:07;10.90;99.90
33139;DHT22;19501;50.948;5.316;2023-09-30T06:19:32;11.00;99.90
33139;DHT22;19501;50.948;5.316;2023-09-30T06:21:58;11.00;99.90
33139;DHT22;19501;50.948;5.316;2023-09-30T06:24:29;11.00;99.90
33139;DHT22;19501;50.948;5.316;2023-09-30T06:26:54;11.10;99.90
33139;DHT22;19501;50.948;5.316;2023-09-30T06:29:20;11.20;99.90
33139;DHT22;19501;50.948;5.316;2023-09-30T06:31:45;11.20;99.90
33139;DHT22;19501;50.948;5.316;2023-09-30T06:34:11;11.40;99.90
33139;DHT22;19501;50.948;5.316;2023-09-30T06:36:38;11.50;99.90
33139;DHT22;19501;50.948;5.316;2023-09-30T06:39:03;11.60;99.90
33139;DHT22;19501;50.948;5.316;2023-09-30T06:41:31;11.70;99.90
33139;DHT22;19501;50.948;5.316;2023-09-30T06:43:57;11.80;99.90
33139;DHT22;19501;50.948;5.316;2023-09-30T06:46:23;11.80;99.90
33139;DHT22;19501;50.948;5.316;2023-09-30T06:48:49;11.90;99.90
33139;DHT22;19501;50.948;5.316;2023-09-30T06:51:17;11.90;99.90
33139;DHT22;19501;50.948;5.316;2023-09-30T06:53:43;12.00;99.90
33139;DHT22;19501;50.948;5.316;2023-09-30T06:56:09;12.10;99.90
33139;DHT22;19501;50.948;5.316;2023-09-30T06:58:35;12.20;99.90
33139;DHT22;19501;50.948;5.316;2023-09-30T07:01:01;12.30;99.90
33139;DHT22;19501;50.948;5.316;2023-09-30T07:03:26;12.30;99.90
33139;DHT22;19501;50.948;5.316;2023-09-30T07:05:53;12.40;99.90
33139;DHT22;19501;50.948;5.316;2023-09-30T07:08:19;12.50;99.90
33139;DHT22;19501;50.948;5.316;2023-09-30T07:10:46;12.60;99.90
33139;DHT22;19501;50.948;5.316;2023-09-30T07:13:17;12.70;99.90
33139;DHT22;19501;50.948;5.316;2023-09-30T07:15:43;12.70;99.90
33139;DHT22;19501;50.948;5.316;2023-09-30T07:18:09;12.60;99.90
33139;DHT22;19501;50.948;5.316;2023-09-30T07:20:35;12.70;99.90
33139;DHT22;19501;50.948;5.316;2023-09-30T07:23:01;12.80;99.90
33139;DHT22;19501;50.948;5.316;2023-09-30T07:25:27;12.90;99.90
33139;DHT22;19501;50.948;5.316;2023-09-30T07:27:53;13.00;99.90
33139;DHT22;19501;50.948;5.316;2023-09-30T07:30:18;13.00;99.90
33139;DHT22;19501;50.948;5.316;2023-09-30T07:32:45;13.00;99.90
33139;DHT22;19501;50.948;5.316;2023-09-30T07:35:11;13.00;99.90
33139;DHT22;19501;50.948;5.316;2023-09-30T07:37:39;12.90;99.90
33139;DHT22;19501;50.948;5.316;2023-09-30T07:40:05;13.00;99.90
33139;DHT22;19501;50.948;5.316;2023-09-30T07:42:32;13.00;99.90
33139;DHT22;19501;50.948;5.316;2023-09-30T07:44:58;13.10;99.90
33139;DHT22;19501;50.948;5.316;2023-09-30T07:47:24;13.10;99.90
33139;DHT22;19501;50.948;5.316;2023-09-30T07:49:50;13.10;99.90
33139;DHT22;19501;50.948;5.316;2023-09-30T07:52:15;13.00;99.90
33139;DHT22;19501;50.948;5.316;2023-09-30T07:54:41;13.10;99.90
33139;DHT22;19501;50.948;5.316;2023-09-30T07:57:07;13.00;99.90
33139;DHT22;19501;50.948;5.316;2023-09-30T07:59:35;12.90;99.90
33139;DHT22;19501;50.948;5.316;2023-09-30T08:02:01;12.90;99.90
33139;DHT22;19501;50.948;5.316;2023-09-30T08:04:30;13.00;99.90
33139;DHT22;19501;50.948;5.316;2023-09-30T08:06:56;13.10;99.90
33139;DHT22;19501;50.948;5.316;2023-09-30T08:09:22;13.20;99.90
33139;DHT22;19501;50.948;5.316;2023-09-30T08:11:50;13.20;99.90
33139;DHT22;19501;50.948;5.316;2023-09-30T08:14:16;13.40;99.90
33139;DHT22;19501;50.948;5.316;2023-09-30T08:16:42;13.30;99.90
33139;DHT22;19501;50.948;5.316;2023-09-30T08:19:08;13.30;99.90
33139;DHT22;19501;50.948;5.316;2023-09-30T08:21:34;13.30;99.90
33139;DHT22;19501;50.948;5.316;2023-09-30T08:24:01;13.30;99.90
33139;DHT22;19501;50.948;5.316;2023-09-30T08:26:27;13.50;99.90
33139;DHT22;19501;50.948;5.316;2023-09-30T08:28:52;13.70;99.90
33139;DHT22;19501;50.948;5.316;2023-09-30T08:31:18;13.80;99.90
33139;DHT22;19501;50.948;5.316;2023-09-30T08:33:45;14.00;99.90
33139;DHT22;19501;50.948;5.316;2023-09-30T08:36:11;14.10;99.90
33139;DHT22;19501;50.948;5.316;2023-09-30T08:38:38;14.10;99.90
33139;DHT22;19501;50.948;5.316;2023-09-30T08:41:04;14.30;99.90
33139;DHT22;19501;50.948;5.316;2023-09-30T08:43:30;14.40;99.90
33139;DHT22;19501;50.948;5.316;2023-09-30T08:45:58;14.30;99.90
33139;DHT22;19501;50.948;5.316;2023-09-30T08:48:26;14.40;99.90
33139;DHT22;19501;50.948;5.316;2023-09-30T08:50:55;14.30;99.90
33139;DHT22;19501;50.948;5.316;2023-09-30T08:53:23;14.30;99.90
33139;DHT22;19501;50.948;5.316;2023-09-30T08:55:53;14.50;99.90
33139;DHT22;19501;50.948;5.316;2023-09-30T08:58:19;14.60;99.90
33139;DHT22;19501;50.948;5.316;2023-09-30T09:00:48;14.50;99.90
33139;DHT22;19501;50.948;5.316;2023-09-30T09:03:14;14.30;99.90
33139;DHT22;19501;50.948;5.316;2023-09-30T09:05:40;14.20;99.90
33139;DHT22;19501;50.948;5.316;2023-09-30T09:08:06;14.40;99.90
33139;DHT22;19501;50.948;5.316;2023-09-30T09:10:31;14.70;99.90
33139;DHT22;19501;50.948;5.316;2023-09-30T09:12:58;14.60;99.90
33139;DHT22;19501;50.948;5.316;2023-09-30T09:15:27;14.60;99.90
33139;DHT22;19501;50.948;5.316;2023-09-30T09:17:56;14.50;99.90
33139;DHT22;19501;50.948;5.316;2023-09-30T09:20:24;14.50;99.90
33139;DHT22;19501;50.948;5.316;2023-09-30T09:22:55;14.70;99.90
33139;DHT22;19501;50.948;5.316;2023-09-30T09:25:25;14.70;99.90
33139;DHT22;19501;50.948;5.316;2023-09-30T09:27:51;14.60;99.90
33139;DHT22;19501;50.948;5.316;2023-09-30T09:32:59;14.90;99.90
33139;DHT22;19501;50.948;5.316;2023-09-30T09:35:26;14.90;99.90
33139;DHT22;19501;50.948;5.316;2023-09-30T09:37:59;15.10;99.90
33139;DHT22;19501;50.948;5.316;2023-09-30T09:40:30;15.30;99.90
33139;DHT22;19501;50.948;5.316;2023-09-30T09:42:57;15.20;99.90
33139;DHT22;19501;50.948;5.316;2023-09-30T09:45:25;15.40;99.90
33139;DHT22;19501;50.948;5.316;2023-09-30T09:47:52;15.30;99.90
33139;DHT22;19501;50.948;5.316;2023-09-30T09:50:19;15.40;99.90
33139;DHT22;19501;50.948;5.316;2023-09-30T09:52:54;15.50;99.90
33139;DHT22;19501;50.948;5.316;2023-09-30T09:55:26;15.70;99.90
33139;DHT22;19501;50.948;5.316;2023-09-30T09:57:53;15.80;99.90
33139;DHT22;19501;50.948;5.316;2023-09-30T10:00:22;15.80;99.90
33139;DHT22;19501;50.948;5.316;2023-09-30T10:02:49;16.00;99.90
33139;DHT22;19501;50.948;5.316;2023-09-30T10:05:16;16.00;99.90
33139;DHT22;19501;50.948;5.316;2023-09-30T10:07:49;16.10;99.90
33139;DHT22;19501;50.948;5.316;2023-09-30T10:10:19;16.00;99.90
33139;DHT22;19501;50.948;5.316;2023-09-30T10:12:46;16.10;99.90
33139;DHT22;19501;50.948;5.316;2023-09-30T10:18:07;16.20;99.90
33139;DHT22;19501;50.948;5.316;2023-09-30T10:20:34;16.50;99.90
33139;DHT22;19501;50.948;5.316;2023-09-30T10:23:24;16.40;99.90
33139;DHT22;19501;50.948;5.316;2023-09-30T10:25:52;16.40;99.90
33139;DHT22;19501;50.948;5.316;2023-09-30T10:31:20;16.40;99.90
33139;DHT22;19501;50.948;5.316;2023-09-30T10:36:38;17.00;99.90
33139;DHT22;19501;50.948;5.316;2023-09-30T10:39:05;16.90;99.90
33139;DHT22;19501;50.948;5.316;2023-09-30T10:47:01;16.40;99.90
33139;DHT22;19501;50.948;5.316;2023-09-30T10:49:46;16.80;99.90
33139;DHT22;19501;50.948;5.316;2023-09-30T10:52:21;17.00;99.90
33139;DHT22;19501;50.948;5.316;2023-09-30T10:54:49;16.70;99.90
33139;DHT22;19501;50.948;5.316;2023-09-30T10:57:28;16.70;99.90
33139;DHT22;19501;50.948;5.316;2023-09-30T11:00:11;17.00;99.90
33139;DHT22;19501;50.948;5.316;2023-09-30T11:02:48;17.60;99.90
33139;DHT22;19501;50.948;5.316;2023-09-30T11:05:17;17.70;99.90
33139;DHT22;19501;50.948;5.316;2023-09-30T11:07:46;18.20;99.90
33139;DHT22;19501;50.948;5.316;2023-09-30T11:10:16;18.60;99.90
33139;DHT22;19501;50.948;5.316;2023-09-30T11:12:56;18.80;99.90
33139;DHT22;19501;50.948;5.316;2023-09-30T11:15:23;19.10;99.90
33139;DHT22;19501;50.948;5.316;2023-09-30T11:17:52;18.70;99.90
33139;DHT22;19501;50.948;5.316;2023-09-30T11:20:20;18.40;99.90
33139;DHT22;19501;50.948;5.316;2023-09-30T11:22:47;18.70;99.90
33139;DHT22;19501;50.948;5.316;2023-09-30T11:25:20;19.00;99.90
33139;DHT22;19501;50.948;5.316;2023-09-30T11:27:47;19.00;99.90
33139;DHT22;19501;50.948;5.316;2023-09-30T11:30:13;18.60;99.90
33139;DHT22;19501;50.948;5.316;2023-09-30T11:32:39;19.00;99.90
33139;DHT22;19501;50.948;5.316;2023-09-30T11:35:25;19.90;99.90
33139;DHT22;19501;50.948;5.316;2023-09-30T11:37:53;20.10;99.90
33139;DHT22;19501;50.948;5.316;2023-09-30T11:40:19;20.40;99.90
33139;DHT22;19501;50.948;5.316;2023-09-30T11:43:08;20.90;99.90
33139;DHT22;19501;50.948;5.316;2023-09-30T11:45:37;21.40;99.90
33139;DHT22;19501;50.948;5.316;2023-09-30T11:48:17;20.90;99.90
33139;DHT22;19501;50.948;5.316;2023-09-30T11:50:49;20.10;99.90
33139;DHT22;19501;50.948;5.316;2023-09-30T11:53:19;19.10;99.90
33139;DHT22;19501;50.948;5.316;2023-09-30T11:55:46;19.10;99.90
33139;DHT22;19501;50.948;5.316;2023-09-30T11:58:11;19.10;99.90
33139;DHT22;19501;50.948;5.316;2023-09-30T12:00:44;19.10;99.90
33139;DHT22;19501;50.948;5.316;2023-09-30T12:03:10;20.00;99.90
33139;DHT22;19501;50.948;5.316;2023-09-30T12:05:36;20.00;99.90
33139;DHT22;19501;50.948;5.316;2023-09-30T12:08:02;20.30;99.90
33139;DHT22;19501;50.948;5.316;2023-09-30T12:10:28;21.10;99.90
33139;DHT22;19501;50.948;5.316;2023-09-30T12:12:54;22.10;99.90
33139;DHT22;19501;50.948;5.316;2023-09-30T12:15:21;22.10;99.90
33139;DHT22;19501;50.948;5.316;2023-09-30T12:17:49;22.40;99.90
33139;DHT22;19501;50.948;5.316;2023-09-30T12:20:15;22.80;99.90
33139;DHT22;19501;50.948;5.316;2023-09-30T12:22:43;23.60;99.90
33139;DHT22;19501;50.948;5.316;2023-09-30T12:25:08;23.00;99.90
33139;DHT22;19501;50.948;5.316;2023-09-30T12:27:34;22.90;99.90
33139;DHT22;19501;50.948;5.316;2023-09-30T12:30:00;23.00;99.90
33139;DHT22;19501;50.948;5.316;2023-09-30T12:32:26;23.20;99.90
33139;DHT22;19501;50.948;5.316;2023-09-30T12:34:55;23.60;99.90
33139;DHT22;19501;50.948;5.316;2023-09-30T12:37:21;23.40;99.90
33139;DHT22;19501;50.948;5.316;2023-09-30T12:39:46;23.70;99.90
33139;DHT22;19501;50.948;5.316;2023-09-30T12:42:13;23.70;99.90
33139;DHT22;19501;50.948;5.316;2023-09-30T12:44:40;24.20;99.90
33139;DHT22;19501;50.948;5.316;2023-09-30T12:47:05;23.10;99.90
33139;DHT22;19501;50.948;5.316;2023-09-30T12:49:34;23.20;99.90
33139;DHT22;19501;50.948;5.316;2023-09-30T12:51:59;23.00;99.90
33139;DHT22;19501;50.948;5.316;2023-09-30T12:54:26;23.30;99.90
33139;DHT22;19501;50.948;5.316;2023-09-30T12:56:54;23.80;99.90
33139;DHT22;19501;50.948;5.316;2023-09-30T12:59:21;24.40;99.90
33139;DHT22;19501;50.948;5.316;2023-09-30T13:01:50;24.20;99.90
33139;DHT22;19501;50.948;5.316;2023-09-30T13:04:16;23.80;99.90
33139;DHT22;19501;50.948;5.316;2023-09-30T13:06:44;23.50;99.90
33139;DHT22;19501;50.948;5.316;2023-09-30T13:09:10;23.40;99.90
33139;DHT22;19501;50.948;5.316;2023-09-30T13:11:37;23.10;99.90
33139;DHT22;19501;50.948;5.316;2023-09-30T13:14:03;22.70;99.90
33139;DHT22;19501;50.948;5.316;2023-09-30T13:16:31;22.70;99.90
33139;DHT22;19501;50.948;5.316;2023-09-30T13:18:59;22.60;99.90
33139;DHT22;19501;50.948;5.316;2023-09-30T13:21:26;23.00;99.90
33139;DHT22;19501;50.948;5.316;2023-09-30T13:23:52;23.50;99.90
33139;DHT22;19501;50.948;5.316;2023-09-30T13:26:19;23.90;99.90
33139;DHT22;19501;50.948;5.316;2023-09-30T13:28:45;23.30;99.90
33139;DHT22;19501;50.948;5.316;2023-09-30T13:31:11;23.10;99.90
33139;DHT22;19501;50.948;5.316;2023-09-30T13:33:36;22.50;99.90
33139;DHT22;19501;50.948;5.316;2023-09-30T13:36:02;22.50;99.90
33139;DHT22;19501;50.948;5.316;2023-09-30T13:38:30;21.80;99.90
33139;DHT22;19501;50.948;5.316;2023-09-30T13:40:56;21.80;99.90
33139;DHT22;19501;50.948;5.316;2023-09-30T13:43:21;21.40;99.90
33139;DHT22;19501;50.948;5.316;2023-09-30T13:45:47;21.40;99.90
33139;DHT22;19501;50.948;5.316;2023-09-30T13:48:14;21.70;99.90
33139;DHT22;19501;50.948;5.316;2023-09-30T13:50:39;21.60;99.90
33139;DHT22;19501;50.948;5.316;2023-09-30T13:53:05;21.60;99.90
33139;DHT22;19501;50.948;5.316;2023-09-30T13:55:37;21.90;99.90
33139;DHT22;19501;50.948;5.316;2023-09-30T13:58:03;21.80;99.90
33139;DHT22;19501;50.948;5.316;2023-09-30T14:00:29;21.70;99.90
33139;DHT22;19501;50.948;5.316;2023-09-30T14:02:55;22.00;99.90
33139;DHT22;19501;50.948;5.316;2023-09-30T14:05:23;21.90;99.90
33139;DHT22;19501;50.948;5.316;2023-09-30T14:07:49;21.40;99.90
33139;DHT22;19501;50.948;5.316;2023-09-30T14:10:14;21.10;99.90
33139;DHT22;19501;50.948;5.316;2023-09-30T14:12:40;21.00;99.90
33139;DHT22;19501;50.948;5.316;2023-09-30T14:15:06;21.10;99.90
33139;DHT22;19501;50.948;5.316;2023-09-30T14:17:32;21.20;99.90
33139;DHT22;19501;50.948;5.316;2023-09-30T14:20:00;20.90;99.90
33139;DHT22;19501;50.948;5.316;2023-09-30T14:22:25;21.10;99.90
33139;DHT22;19501;50.948;5.316;2023-09-30T14:24:52;21.20;99.90
33139;DHT22;19501;50.948;5.316;2023-09-30T14:27:18;21.30;99.90
33139;DHT22;19501;50.948;5.316;2023-09-30T14:29:45;21.60;99.90
33139;DHT22;19501;50.948;5.316;2023-09-30T14:32:11;21.90;99.90
33139;DHT22;19501;50.948;5.316;2023-09-30T14:34:37;21.90;99.90
33139;DHT22;19501;50.948;5.316;2023-09-30T14:37:02;21.80;99.90
33139;DHT22;19501;50.948;5.316;2023-09-30T14:39:28;21.70;99.90
33139;DHT22;19501;50.948;5.316;2023-09-30T14:41:56;21.80;99.90
33139;DHT22;19501;50.948;5.316;2023-09-30T14:44:22;21.70;99.90
33139;DHT22;19501;50.948;5.316;2023-09-30T14:46:49;21.40;99.90
33139;DHT22;19501;50.948;5.316;2023-09-30T14:49:14;21.50;99.90
33139;DHT22;19501;50.948;5.316;2023-09-30T14:51:40;21.60;99.90
33139;DHT22;19501;50.948;5.316;2023-09-30T14:54:06;21.50;99.90
33139;DHT22;19501;50.948;5.316;2023-09-30T14:56:32;21.20;99.90
33139;DHT22;19501;50.948;5.316;2023-09-30T14:59:00;21.30;99.90
33139;DHT22;19501;50.948;5.316;2023-09-30T15:01:26;21.50;99.90
33139;DHT22;19501;50.948;5.316;2023-09-30T15:03:52;21.80;99.90
33139;DHT22;19501;50.948;5.316;2023-09-30T15:06:17;22.10;99.90
33139;DHT22;19501;50.948;5.316;2023-09-30T15:08:43;22.00;99.90
33139;DHT22;19501;50.948;5.316;2023-09-30T15:11:13;21.80;99.90
33139;DHT22;19501;50.948;5.316;2023-09-30T15:13:40;21.70;99.90
33139;DHT22;19501;50.948;5.316;2023-09-30T15:16:14;21.70;99.90
33139;DHT22;19501;50.948;5.316;2023-09-30T15:18:40;21.70;99.90
33139;DHT22;19501;50.948;5.316;2023-09-30T15:21:06;21.80;99.90
33139;DHT22;19501;50.948;5.316;2023-09-30T15:23:31;21.80;99.90
33139;DHT22;19501;50.948;5.316;2023-09-30T15:25:58;21.80;99.90
33139;DHT22;19501;50.948;5.316;2023-09-30T15:28:23;21.40;99.90
33139;DHT22;19501;50.948;5.316;2023-09-30T15:30:52;21.20;99.90
33139;DHT22;19501;50.948;5.316;2023-09-30T15:33:20;21.20;99.90
33139;DHT22;19501;50.948;5.316;2023-09-30T15:35:45;21.10;99.90
33139;DHT22;19501;50.948;5.316;2023-09-30T15:38:12;21.00;99.90
33139;DHT22;19501;50.948;5.316;2023-09-30T15:40:52;20.90;99.90
33139;DHT22;19501;50.948;5.316;2023-09-30T15:43:25;20.90;99.90
33139;DHT22;19501;50.948;5.316;2023-09-30T15:45:51;21.00;99.90
33139;DHT22;19501;50.948;5.316;2023-09-30T15:48:17;20.90;99.90